Time,TemperatureF,DewpointF,PressureIn,WindDirection,WindDirectionDegrees,WindSpeedMPH,WindSpeedGustMPH,Humidity,HourlyPrecipIn,Conditions,Clouds,dailyrainin,SoftwareType,DateUTC
2013-01-18 00:03:00,34.0,31.0,30.15,South,179,1.0,0.0,89,-99.99,,,-99.99,,2013-01-18 05:03:00,
2013-01-18 00:12:00,34.0,31.0,30.15,South,179,1.0,0.0,89,-99.99,,,-99.99,,2013-01-18 05:12:00,
2013-01-18 00:22:00,34.0,31.0,30.17,East,96,0.0,0.0,89,-99.99,,,-99.99,,2013-01-18 05:22:00,
2013-01-18 00:33:00,34.0,31.0,30.17,NE,54,1.0,0.0,90,-99.99,,,-99.99,,2013-01-18 05:33:00,
2013-01-18 00:42:00,34.0,31.0,30.17,NE,54,1.0,0.0,90,-99.99,,,-99.99,,2013-01-18 05:42:00,
2013-01-18 00:53:00,34.0,31.0,30.19,ESE,116,1.0,0.0,88,-99.99,,,-99.99,,2013-01-18 05:53:00,
2013-01-18 01:02:00,34.0,31.0,30.19,ENE,63,2.0,0.0,88,-99.99,,,-99.99,,2013-01-18 06:02:00,
2013-01-18 01:12:00,34.0,31.0,30.19,ENE,63,2.0,0.0,88,-99.99,,,-99.99,,2013-01-18 06:12:00,
2013-01-18 01:22:00,34.0,30.0,30.20,East,80,1.0,0.0,85,-99.99,,,-99.99,,2013-01-18 06:22:00,
2013-01-18 01:33:00,34.0,30.0,30.20,East,80,1.0,0.0,85,-99.99,,,-99.99,,2013-01-18 06:33:00,
2013-01-18 01:43:00,34.0,30.0,30.20,East,80,1.0,0.0,85,-99.99,,,-99.99,,2013-01-18 06:43:00,
2013-01-18 01:53:00,34.0,29.0,30.23,ENE,65,6.0,0.0,81,-99.99,,,-99.99,,2013-01-18 06:53:00,
2013-01-18 02:02:00,34.0,28.0,30.24,ESE,119,1.0,0.0,79,-99.99,,,-99.99,,2013-01-18 07:02:00,
2013-01-18 02:12:00,34.0,28.0,30.24,ESE,119,1.0,0.0,79,-99.99,,,-99.99,,2013-01-18 07:12:00,
2013-01-18 02:22:00,34.0,28.0,30.25,SE,138,2.0,0.0,80,-99.99,,,-99.99,,2013-01-18 07:22:00,
2013-01-18 02:32:00,33.0,28.0,30.25,NE,49,0.0,0.0,81,-99.99,,,-99.99,,2013-01-18 07:32:00,
2013-01-18 02:42:00,33.0,28.0,30.25,NE,49,0.0,0.0,81,-99.99,,,-99.99,,2013-01-18 07:42:00,
2013-01-18 02:52:00,32.0,27.0,30.25,ESE,123,0.0,0.0,83,-99.99,,,-99.99,,2013-01-18 07:52:00,
2013-01-18 03:02:00,32.0,27.0,30.25,ENE,77,2.0,0.0,81,-99.99,,,-99.99,,2013-01-18 08:02:00,
2013-01-18 03:12:00,32.0,27.0,30.25,ENE,77,2.0,0.0,81,-99.99,,,-99.99,,2013-01-18 08:12:00,
2013-01-18 03:22:00,32.0,27.0,30.25,East,90,1.0,0.0,81,-99.99,,,-99.99,,2013-01-18 08:22:00,
2013-01-18 03:32:00,32.0,27.0,30.26,ESE,112,0.0,0.0,80,-99.99,,,-99.99,,2013-01-18 08:32:00,
2013-01-18 03:42:00,32.0,27.0,30.26,ESE,112,0.0,0.0,80,-99.99,,,-99.99,,2013-01-18 08:42:00,
2013-01-18 03:53:00,32.0,27.0,30.26,East,88,1.0,0.0,83,-99.99,,,-99.99,,2013-01-18 08:53:00,
2013-01-18 04:03:00,32.0,27.0,30.26,NNE,18,1.0,0.0,82,-99.99,,,-99.99,,2013-01-18 09:03:00,
2013-01-18 04:12:00,32.0,27.0,30.26,NNE,18,1.0,0.0,82,-99.99,,,-99.99,,2013-01-18 09:12:00,
2013-01-18 04:22:00,31.0,27.0,30.25,East,96,1.0,0.0,85,-99.99,,,-99.99,,2013-01-18 09:22:00,
2013-01-18 04:33:00,31.0,27.0,30.25,ESE,116,6.0,0.0,86,-99.99,,,-99.99,,2013-01-18 09:33:00,
2013-01-18 04:42:00,31.0,27.0,30.25,ESE,116,6.0,0.0,86,-99.99,,,-99.99,,2013-01-18 09:42:00,
2013-01-18 04:53:00,31.0,26.0,30.27,NE,40,1.0,0.0,82,-99.99,,,-99.99,,2013-01-18 09:53:00,
2013-01-18 05:03:00,31.0,26.0,30.26,South,184,1.0,0.0,81,-99.99,,,-99.99,,2013-01-18 10:03:00,
2013-01-18 05:12:00,31.0,26.0,30.26,South,184,1.0,0.0,81,-99.99,,,-99.99,,2013-01-18 10:12:00,
2013-01-18 05:22:00,31.0,26.0,30.27,SE,124,0.0,0.0,81,-99.99,,,-99.99,,2013-01-18 10:22:00,
2013-01-18 05:32:00,31.0,25.0,30.27,East,89,2.0,0.0,79,-99.99,,,-99.99,,2013-01-18 10:32:00,
2013-01-18 05:43:00,31.0,25.0,30.27,East,89,2.0,0.0,79,-99.99,,,-99.99,,2013-01-18 10:43:00,
2013-01-18 05:53:00,31.0,26.0,30.27,ENE,60,1.0,0.0,81,-99.99,,,-99.99,,2013-01-18 10:53:00,
2013-01-18 06:02:00,30.0,25.0,30.28,NE,39,1.0,0.0,83,-99.99,,,-99.99,,2013-01-18 11:02:00,
2013-01-18 06:12:00,30.0,25.0,30.28,NE,39,1.0,0.0,83,-99.99,,,-99.99,,2013-01-18 11:12:00,
2013-01-18 06:23:00,30.0,25.0,30.29,SE,124,1.0,0.0,82,-99.99,,,-99.99,,2013-01-18 11:23:00,
2013-01-18 06:32:00,30.0,25.0,30.29,ENE,70,0.0,0.0,83,-99.99,,,-99.99,,2013-01-18 11:32:00,
2013-01-18 06:42:00,30.0,25.0,30.29,ENE,70,0.0,0.0,83,-99.99,,,-99.99,,2013-01-18 11:42:00,
2013-01-18 06:53:00,30.0,26.0,30.30,East,96,1.0,0.0,84,-99.99,,,-99.99,,2013-01-18 11:53:00,
2013-01-18 07:03:00,30.0,25.0,30.31,East,79,2.0,0.0,82,-99.99,,,-99.99,,2013-01-18 12:03:00,
2013-01-18 07:12:00,30.0,25.0,30.31,East,79,2.0,0.0,82,-99.99,,,-99.99,,2013-01-18 12:12:00,
2013-01-18 07:23:00,31.0,25.0,30.32,East,97,1.0,0.0,78,-99.99,,,-99.99,,2013-01-18 12:23:00,
2013-01-18 07:33:00,30.0,24.0,30.33,East,91,2.0,0.0,78,-99.99,,,-99.99,,2013-01-18 12:33:00,
2013-01-18 07:43:00,30.0,24.0,30.33,East,91,2.0,0.0,78,-99.99,,,-99.99,,2013-01-18 12:43:00,
2013-01-18 07:53:00,31.0,25.0,30.34,SE,145,1.0,0.0,77,-99.99,,,-99.99,,2013-01-18 12:53:00,
2013-01-18 08:03:00,31.0,25.0,30.35,NE,53,4.0,0.0,77,-99.99,,,-99.99,,2013-01-18 13:03:00,
2013-01-18 08:12:00,31.0,25.0,30.35,NE,53,4.0,0.0,77,-99.99,,,-99.99,,2013-01-18 13:12:00,
2013-01-18 08:23:00,30.0,25.0,30.36,East,89,1.0,0.0,80,-99.99,,,-99.99,,2013-01-18 13:23:00,
2013-01-18 08:33:00,30.0,24.0,30.37,SE,145,1.0,0.0,79,-99.99,,,-99.99,,2013-01-18 13:33:00,
2013-01-18 08:43:00,30.0,24.0,30.37,SE,145,1.0,0.0,79,-99.99,,,-99.99,,2013-01-18 13:43:00,
2013-01-18 08:53:00,31.0,24.0,30.39,East,83,2.0,0.0,76,-99.99,,,-99.99,,2013-01-18 13:53:00,
2013-01-18 09:03:00,32.0,23.0,30.40,ESE,114,2.0,0.0,69,-99.99,,,-99.99,,2013-01-18 14:03:00,
2013-01-18 09:12:00,32.0,23.0,30.40,ESE,114,2.0,0.0,69,-99.99,,,-99.99,,2013-01-18 14:12:00,
2013-01-18 09:23:00,32.0,24.0,30.42,ESE,109,0.0,0.0,71,-99.99,,,-99.99,,2013-01-18 14:23:00,
2013-01-18 09:33:00,32.0,22.0,30.42,SE,138,0.0,0.0,65,-99.99,,,-99.99,,2013-01-18 14:33:00,
2013-01-18 09:43:00,32.0,22.0,30.42,SE,138,0.0,0.0,65,-99.99,,,-99.99,,2013-01-18 14:43:00,
2013-01-18 09:53:00,33.0,21.0,30.43,East,89,2.0,0.0,61,-99.99,,,-99.99,,2013-01-18 14:53:00,
2013-01-18 10:03:00,34.0,23.0,30.44,ESE,104,1.0,0.0,63,-99.99,,,-99.99,,2013-01-18 15:03:00,
2013-01-18 10:13:00,34.0,23.0,30.44,ESE,104,1.0,0.0,63,-99.99,,,-99.99,,2013-01-18 15:13:00,
2013-01-18 10:23:00,35.0,23.0,30.46,SE,139,2.0,0.0,60,-99.99,,,-99.99,,2013-01-18 15:23:00,
2013-01-18 10:34:00,35.0,23.0,30.46,NNE,18,1.0,0.0,60,-99.99,,,-99.99,,2013-01-18 15:34:00,
2013-01-18 10:43:00,35.0,23.0,30.46,NNE,18,1.0,0.0,60,-99.99,,,-99.99,,2013-01-18 15:43:00,
2013-01-18 10:54:00,36.0,24.0,30.47,East,94,1.0,0.0,61,-99.99,,,-99.99,,2013-01-18 15:54:00,
2013-01-18 11:03:00,36.0,23.0,30.48,North,9,1.0,0.0,58,-99.99,,,-99.99,,2013-01-18 16:03:00,
2013-01-18 11:13:00,36.0,23.0,30.48,North,9,1.0,0.0,58,-99.99,,,-99.99,,2013-01-18 16:13:00,
2013-01-18 11:23:00,37.0,21.0,30.48,ESE,113,1.0,0.0,52,-99.99,,,-99.99,,2013-01-18 16:23:00,
2013-01-18 11:33:00,37.0,24.0,30.48,ENE,63,1.0,0.0,58,-99.99,,,-99.99,,2013-01-18 16:33:00,
2013-01-18 11:43:00,37.0,24.0,30.48,ENE,63,1.0,0.0,58,-99.99,,,-99.99,,2013-01-18 16:43:00,
2013-01-18 11:53:00,38.0,25.0,30.48,ESE,108,0.0,0.0,60,-99.99,,,-99.99,,2013-01-18 16:53:00,
2013-01-18 12:03:00,38.0,25.0,30.48,East,90,2.0,0.0,58,-99.99,,,-99.99,,2013-01-18 17:03:00,
2013-01-18 12:13:00,38.0,25.0,30.48,East,90,2.0,0.0,58,-99.99,,,-99.99,,2013-01-18 17:13:00,
2013-01-18 12:23:00,39.0,23.0,30.48,East,91,2.0,0.0,52,-99.99,,,-99.99,,2013-01-18 17:23:00,
2013-01-18 12:33:00,38.0,22.0,30.48,ESE,106,2.0,0.0,52,-99.99,,,-99.99,,2013-01-18 17:33:00,
2013-01-18 12:43:00,38.0,22.0,30.48,ESE,106,2.0,0.0,52,-99.99,,,-99.99,,2013-01-18 17:43:00,
2013-01-18 12:53:00,38.0,21.0,30.47,East,96,1.0,0.0,49,-99.99,,,-99.99,,2013-01-18 17:53:00,
2013-01-18 13:03:00,38.0,24.0,30.47,ENE,77,5.0,0.0,57,-99.99,,,-99.99,,2013-01-18 18:03:00,
2013-01-18 13:13:00,38.0,24.0,30.47,ENE,77,5.0,0.0,57,-99.99,,,-99.99,,2013-01-18 18:13:00,
2013-01-18 13:23:00,39.0,23.0,30.48,ENE,62,2.0,0.0,53,-99.99,,,-99.99,,2013-01-18 18:23:00,
2013-01-18 13:33:00,39.0,22.0,30.47,SE,134,1.0,0.0,51,-99.99,,,-99.99,,2013-01-18 18:33:00,
2013-01-18 13:43:00,39.0,22.0,30.47,SE,134,1.0,0.0,51,-99.99,,,-99.99,,2013-01-18 18:43:00,
2013-01-18 13:53:00,39.0,25.0,30.47,East,96,1.0,0.0,57,-99.99,,,-99.99,,2013-01-18 18:53:00,
2013-01-18 14:03:00,40.0,26.0,30.47,East,84,1.0,0.0,58,-99.99,,,-99.99,,2013-01-18 19:03:00,
2013-01-18 14:13:00,40.0,26.0,30.47,East,84,1.0,0.0,58,-99.99,,,-99.99,,2013-01-18 19:13:00,
2013-01-18 14:23:00,40.0,27.0,30.47,ESE,123,3.0,0.0,60,-99.99,,,-99.99,,2013-01-18 19:23:00,
2013-01-18 14:33:00,39.0,27.0,30.47,East,84,6.0,0.0,63,-99.99,,,-99.99,,2013-01-18 19:33:00,
2013-01-18 14:43:00,39.0,27.0,30.47,East,84,6.0,0.0,63,-99.99,,,-99.99,,2013-01-18 19:43:00,
2013-01-18 14:53:00,39.0,27.0,30.47,East,84,7.0,0.0,62,-99.99,,,-99.99,,2013-01-18 19:53:00,
2013-01-18 15:03:00,40.0,28.0,30.47,ESE,107,1.0,0.0,62,-99.99,,,-99.99,,2013-01-18 20:03:00,
2013-01-18 15:13:00,40.0,28.0,30.47,ESE,107,1.0,0.0,62,-99.99,,,-99.99,,2013-01-18 20:13:00,
2013-01-18 15:23:00,39.0,26.0,30.47,SE,138,0.0,0.0,60,-99.99,,,-99.99,,2013-01-18 20:23:00,
2013-01-18 15:33:00,40.0,27.0,30.47,NNE,26,2.0,0.0,59,-99.99,,,-99.99,,2013-01-18 20:33:00,
2013-01-18 15:43:00,40.0,27.0,30.47,NNE,26,2.0,0.0,59,-99.99,,,-99.99,,2013-01-18 20:43:00,
2013-01-18 15:53:00,39.0,26.0,30.47,ESE,121,0.0,0.0,60,-99.99,,,-99.99,,2013-01-18 20:53:00,
2013-01-18 16:03:00,39.0,26.0,30.48,East,95,1.0,0.0,59,-99.99,,,-99.99,,2013-01-18 21:03:00,
2013-01-18 16:13:00,39.0,26.0,30.48,East,95,1.0,0.0,59,-99.99,,,-99.99,,2013-01-18 21:13:00,
2013-01-18 16:23:00,40.0,26.0,30.47,ESE,108,2.0,0.0,57,-99.99,,,-99.99,,2013-01-18 21:23:00,
2013-01-18 16:33:00,40.0,26.0,30.47,ENE,65,5.0,0.0,57,-99.99,,,-99.99,,2013-01-18 21:33:00,
2013-01-18 16:43:00,40.0,26.0,30.47,ENE,65,5.0,0.0,57,-99.99,,,-99.99,,2013-01-18 21:43:00,
2013-01-18 16:53:00,39.0,26.0,30.48,ENE,73,6.0,0.0,59,-99.99,,,-99.99,,2013-01-18 21:53:00,
2013-01-18 17:03:00,38.0,26.0,30.48,ESE,103,1.0,0.0,61,-99.99,,,-99.99,,2013-01-18 22:03:00,
2013-01-18 17:12:00,38.0,26.0,30.48,ESE,103,1.0,0.0,61,-99.99,,,-99.99,,2013-01-18 22:12:00,
2013-01-18 17:23:00,38.0,26.0,30.48,ESE,108,0.0,0.0,62,-99.99,,,-99.99,,2013-01-18 22:23:00,
2013-01-18 17:33:00,37.0,26.0,30.49,East,82,0.0,0.0,64,-99.99,,,-99.99,,2013-01-18 22:33:00,
2013-01-18 17:43:00,37.0,26.0,30.49,East,82,0.0,0.0,64,-99.99,,,-99.99,,2013-01-18 22:43:00,
2013-01-18 17:53:00,36.0,26.0,30.49,ESE,117,4.0,0.0,66,-99.99,,,-99.99,,2013-01-18 22:53:00,
2013-01-18 18:03:00,35.0,25.0,30.50,ESE,107,1.0,0.0,67,-99.99,,,-99.99,,2013-01-18 23:03:00,
2013-01-18 18:12:00,35.0,25.0,30.50,ESE,107,1.0,0.0,67,-99.99,,,-99.99,,2013-01-18 23:12:00,
2013-01-18 18:23:00,34.0,25.0,30.50,NE,51,0.0,0.0,70,-99.99,,,-99.99,,2013-01-18 23:23:00,
2013-01-18 18:33:00,34.0,25.0,30.50,East,89,0.0,0.0,70,-99.99,,,-99.99,,2013-01-18 23:33:00,
2013-01-18 18:43:00,34.0,25.0,30.50,East,89,0.0,0.0,70,-99.99,,,-99.99,,2013-01-18 23:43:00,
2013-01-18 18:53:00,32.0,25.0,30.50,East,89,1.0,0.0,76,-99.99,,,-99.99,,2013-01-18 23:53:00,
2013-01-18 19:02:00,32.0,26.0,30.50,East,89,0.0,0.0,77,-99.99,,,-99.99,,2013-01-19 00:02:00,
2013-01-18 19:12:00,32.0,26.0,30.50,East,89,0.0,0.0,77,-99.99,,,-99.99,,2013-01-19 00:12:00,
2013-01-18 19:23:00,32.0,26.0,30.51,East,89,1.0,0.0,79,-99.99,,,-99.99,,2013-01-19 00:23:00,
2013-01-18 19:33:00,32.0,26.0,30.51,NE,54,0.0,0.0,79,-99.99,,,-99.99,,2013-01-19 00:33:00,
2013-01-18 19:43:00,32.0,26.0,30.51,NE,54,0.0,0.0,79,-99.99,,,-99.99,,2013-01-19 00:43:00,
2013-01-18 19:53:00,32.0,27.0,30.51,ESE,108,1.0,0.0,80,-99.99,,,-99.99,,2013-01-19 00:53:00,
2013-01-18 20:02:00,32.0,27.0,30.51,East,91,1.0,0.0,80,-99.99,,,-99.99,,2013-01-19 01:02:00,
2013-01-18 20:12:00,32.0,27.0,30.51,East,91,1.0,0.0,80,-99.99,,,-99.99,,2013-01-19 01:12:00,
2013-01-18 20:23:00,32.0,27.0,30.51,ESE,120,0.0,0.0,81,-99.99,,,-99.99,,2013-01-19 01:23:00,
2013-01-18 20:33:00,31.0,26.0,30.51,NE,51,1.0,0.0,83,-99.99,,,-99.99,,2013-01-19 01:33:00,
2013-01-18 20:43:00,31.0,26.0,30.51,NE,51,1.0,0.0,83,-99.99,,,-99.99,,2013-01-19 01:43:00,
2013-01-18 20:53:00,31.0,27.0,30.51,ESE,110,0.0,0.0,84,-99.99,,,-99.99,,2013-01-19 01:53:00,
2013-01-18 21:03:00,31.0,27.0,30.51,ESE,110,0.0,0.0,85,-99.99,,,-99.99,,2013-01-19 02:03:00,
2013-01-18 21:12:00,31.0,27.0,30.51,ESE,110,0.0,0.0,85,-99.99,,,-99.99,,2013-01-19 02:12:00,
2013-01-18 21:23:00,31.0,27.0,30.51,ESE,114,0.0,0.0,85,-99.99,,,-99.99,,2013-01-19 02:23:00,
2013-01-18 21:33:00,30.0,26.0,30.51,SSE,150,0.0,0.0,85,-99.99,,,-99.99,,2013-01-19 02:33:00,
2013-01-18 21:43:00,30.0,26.0,30.51,SSE,150,0.0,0.0,85,-99.99,,,-99.99,,2013-01-19 02:43:00,
2013-01-18 21:53:00,30.0,26.0,30.50,ESE,108,0.0,0.0,86,-99.99,,,-99.99,,2013-01-19 02:53:00,
2013-01-18 22:03:00,30.0,26.0,30.49,ESE,110,0.0,0.0,86,-99.99,,,-99.99,,2013-01-19 03:03:00,
2013-01-18 22:12:00,30.0,26.0,30.49,ESE,110,0.0,0.0,86,-99.99,,,-99.99,,2013-01-19 03:12:00,
2013-01-18 22:23:00,30.0,26.0,30.49,East,97,0.0,0.0,86,-99.99,,,-99.99,,2013-01-19 03:23:00,
2013-01-18 22:33:00,30.0,26.0,30.49,East,98,0.0,0.0,86,-99.99,,,-99.99,,2013-01-19 03:33:00,
2013-01-18 22:43:00,30.0,26.0,30.49,East,98,0.0,0.0,86,-99.99,,,-99.99,,2013-01-19 03:43:00,
2013-01-18 22:53:00,30.0,27.0,30.48,SSW,193,0.0,0.0,87,-99.99,,,-99.99,,2013-01-19 03:53:00,
2013-01-18 23:02:00,29.0,26.0,30.48,ESE,122,0.0,0.0,88,-99.99,,,-99.99,,2013-01-19 04:02:00,
2013-01-18 23:12:00,29.0,26.0,30.48,ESE,122,0.0,0.0,88,-99.99,,,-99.99,,2013-01-19 04:12:00,
2013-01-18 23:22:00,29.0,26.0,30.48,SE,146,0.0,0.0,90,-99.99,,,-99.99,,2013-01-19 04:22:00,
2013-01-18 23:33:00,28.0,25.0,30.47,ESE,107,2.0,0.0,90,-99.99,,,-99.99,,2013-01-19 04:33:00,
2013-01-18 23:42:00,28.0,25.0,30.47,ESE,107,2.0,0.0,90,-99.99,,,-99.99,,2013-01-19 04:42:00,
2013-01-18 23:53:00,29.0,26.0,30.46,ESE,107,0.0,0.0,88,-99.99,,,-99.99,,2013-01-19 04:53:00,